Hlavní strana
METAR-TAF:

METAR-TAF

Letiště :

Kuej-lin, Čína

zeměpisná šířka: 25-20N, zeměpisná délka: 110-18E, výška: 166 m

Aktuální stav počasí

Zpráva byla vytvořena před 24 minutami, v 23:00 UTC
vítr z různých směrů 2 kt
Teplota 16°C
Vlhkost vzduchu 94%
Tlak 1018 hPa
Viditelnost: 5000 m
Skoro jasno ve výšce 4300 ft
kouřmo

METAR: ZGKL 152300Z VRB01MPS 5000 BR FEW043 16/15 Q1018 NOSIG

Čas: 07:24 (23:24 UTC)

Předpověď počasí

Zpráva byla vytvořena před 8 hodinami a 11 minutami, v 15:13 UTC
Předpověď platná od 15 v 18 UTC do 16 v 18 UTC
Severovýchodní vítr 6 kt
Viditelnost: 2500 m
Skoro jasno ve výšce 1000 ft
Polojasno ve výšce 2300 ft
Zataženo ve výšce 5000 ft
slabý déšť, kouřmo
Změna
od 16 v 01 UTC do 16 v 02 UTC
Viditelnost: 6000 m

TAF: ZGKL 151513Z 1518/1618 05003MPS 2500 -RA BR FEW010 SCT023 OVC050 TX23/1607Z TN14/1522Z BECMG 1601/1602 6000

Stav a předpovědi počasí z více než 4 000 letišť (zprávy METAR a TAF).

Červené a žluté tečky na mapě představují dostupné meteorologické stanice.

Když kurzor umístíte na tečku, zobrazí se název stanice.

Pak kliknutím zobrazíte stav a předpověď počasí.

Chcete-li změnit mapu, kliknutím na zelené tlačítko se znaménkem +mapu přiblížíte, kliknutím na zelené tlačítko se znaménkem – mapu oddálíte a kliknutím na zelené šipky přejdete na sousední mapy.


METAR-TAF: